Latest Weather Observations for Cooktown

IDQ60801

Issued at 12:43 pm EST Saturday 1 October 2022 (issued every 10 minutes, with the page automatically refreshed every 10 minutes)

About weather observations | Map of weather stations | Latest weather observations for QLD | Other Formats
Station Details ID: 031209 Name: COOKTOWN AIRPORT Lat: -15.45 Lon: 145.19 Height: 4.8 m
Data from the previous 72 hours. | See also: Recent months at Cooktown
Date/Time
EST
Temp
°C
App
Temp
°C
Dew
Point
°C
Rel
Hum
%
Delta-T
°C
Wind Press
QNH
hPa
Press
MSL
hPa
Rain since
9am
mm
Dir  Spd
km/h
Gust
km/h
Spd
kts
Gust
kts
01/12:30pm 29.6 27.1 18.1 50 7.4 ESE 28 43 15 23 1012.8 1012.8 0.0
01/12:00pm 29.6 27.8 17.8 49 7.5 ESE 24 37 13 20 1013.3 1013.3 0.0
01/11:30am 28.4 26.6 17.9 53 6.7 ESE 24 37 13 20 1013.9 1013.9 0.0
01/11:00am 28.7 26.5 17.9 52 6.9 ESE 26 35 14 19 1014.2 1014.2 0.0
01/10:30am 28.0 25.8 17.8 54 6.5 SE 26 35 14 19 1014.7 1014.7 0.0
01/10:00am 28.2 26.3 17.7 53 6.6 ESE 24 41 13 22 1014.5 1014.5 0.0
01/09:30am 28.3 27.1 18.4 55 6.3 SE 22 39 12 21 1014.8 1014.8 0.0
01/09:00am 27.9 27.0 18.3 56 6.1 ESE 20 28 11 15 1014.7 1014.7 0.0
01/08:30am 27.4 26.2 18.4 58 5.7 ESE 22 37 12 20 1014.6 1014.6 0.0
01/08:00am 27.1 25.5 18.4 59 5.5 ESE 24 35 13 19 1014.3 1014.3 0.0
01/07:30am 26.3 25.4 18.2 61 5.1 ESE 20 28 11 15 1013.9 1013.9 0.0
01/07:00am 25.5 25.3 18.4 65 4.5 ESE 17 26 9 14 1013.3 1013.3 0.0
01/06:30am 25.0 24.4 18.4 66 4.2 ESE 19 30 10 16 1012.9 1012.9 0.0
01/06:00am 24.7 23.9 18.4 68 4.0 ESE 20 28 11 15 1012.6 1012.6 0.0
01/05:30am 24.9 24.4 18.6 68 4.0 ESE 19 30 10 16 1012.5 1012.5 0.0
01/05:00am 24.7 24.9 18.6 69 3.9 ESE 15 24 8 13 1012.1 1012.1 0.0
01/04:30am 24.6 24.4 18.5 69 3.9 ESE 17 22 9 12 1011.9 1011.9 0.0
01/04:00am 24.4 24.1 18.3 69 3.8 ESE 17 24 9 13 1011.8 1011.8 0.0
01/03:30am 24.7 24.1 18.4 68 4.0 ESE 19 30 10 16 1011.8 1011.8 0.0
01/03:00am 24.7 24.1 18.4 68 4.0 ESE 19 28 10 15 1012.0 1012.0 0.0
01/02:30am 25.0 24.5 18.7 68 4.0 ESE 19 28 10 15 1012.2 1012.2 0.0
01/02:00am 25.0 24.9 18.7 68 4.0 ESE 17 28 9 15 1012.5 1012.5 0.0
01/01:30am 25.0 24.5 18.7 68 4.0 ESE 19 28 10 15 1012.9 1012.9 0.0
01/01:00am 25.2 24.6 18.9 68 4.0 ESE 20 30 11 16 1013.0 1013.0 0.0
01/12:30am 25.0 24.4 18.9 69 3.9 ESE 20 30 11 16 1013.1 1013.1 0.0
01/12:00am 25.4 24.5 19.1 68 4.0 ESE 22 30 12 16 1013.5 1013.5 0.0
 
Date/Time
EST
Temp
°C
App
Temp
°C
Dew
Point
°C
Rel
Hum
%
Delta-T
°C
Wind Press
QNH
hPa
Press
MSL
hPa
Rain since
9am
mm
Dir  Spd
km/h
Gust
km/h
Spd
kts
Gust
kts
30/11:30pm 25.1 24.7 19.0 69 3.9 ESE 19 28 10 15 1013.7 1013.7 0.0
30/11:00pm 25.3 24.8 19.2 69 3.9 ESE 20 28 11 15 1014.0 1014.0 0.0
30/10:30pm 25.4 25.0 19.3 69 3.9 ESE 20 32 11 17 1014.2 1014.2 0.0
30/10:00pm 25.5 25.4 19.6 70 3.8 ESE 19 28 10 15 1014.0 1014.0 0.0
30/09:30pm 25.7 25.4 19.6 69 3.9 ESE 20 33 11 18 1014.1 1014.1 0.0
30/09:00pm 25.6 25.5 19.9 70 3.7 ESE 20 28 11 15 1013.8 1013.8 0.0
30/08:30pm 25.6 25.9 20.4 73 3.4 ESE 19 26 10 14 1013.8 1013.8 0.0
30/08:00pm 25.6 25.9 20.4 73 3.4 ESE 19 28 10 15 1013.8 1013.8 0.0
30/07:30pm 25.7 25.6 20.0 71 3.7 ESE 20 28 11 15 1013.6 1013.6 0.0
30/07:00pm 25.7 26.4 20.5 73 3.4 ESE 17 28 9 15 1013.2 1013.2 0.0
30/06:30pm 25.7 25.6 20.0 71 3.7 ESE 20 28 11 15 1012.8 1012.8 0.0
30/06:00pm 26.0 25.5 19.9 69 4.0 ESE 22 35 12 19 1012.6 1012.6 0.0
30/05:30pm 26.4 26.1 20.3 69 4.0 ESE 22 37 12 20 1012.3 1012.3 0.0
30/05:00pm 27.4 27.2 20.5 66 4.5 ESE 22 35 12 19 1012.2 1012.2 0.0
30/04:30pm 26.8 25.4 20.4 68 4.2 ESE 28 44 15 24 1012.0 1012.0 0.0
30/04:00pm 27.3 26.7 20.4 66 4.5 ESE 24 35 13 19 1012.1 1012.1 0.0
30/03:30pm 28.0 26.9 20.3 63 5.1 ESE 26 39 14 21 1011.9 1011.9 0.0
30/03:00pm 28.2 28.2 21.0 65 4.8 ESE 22 33 12 18 1012.2 1012.2 0.0
30/02:30pm 28.4 27.4 21.2 65 4.8 SE 28 39 15 21 1012.3 1012.3 0.0
30/02:00pm 28.0 27.4 20.6 64 4.9 ESE 24 35 13 19 1012.7 1012.7 0.0
30/01:30pm 29.1 28.3 20.8 61 5.5 ESE 26 41 14 22 1013.1 1013.1 0.0
30/01:00pm 29.7 28.6 21.1 60 5.7 ESE 28 39 15 21 1013.6 1013.6 0.0
30/12:30pm 29.8 29.4 20.9 59 5.9 SE 24 39 13 21 1014.2 1014.2 0.0
30/12:00pm 29.1 28.1 20.5 59 5.7 SE 26 33 14 18 1014.7 1014.7 0.0
30/11:30am 29.4 28.7 20.3 58 6.0 ESE 24 35 13 19 1015.2 1015.2 0.0
30/11:00am 29.7 29.1 20.5 57 6.1 ESE 24 33 13 18 1015.5 1015.5 0.0
30/10:30am 28.3 27.8 20.8 63 5.0 SE 24 35 13 19 1015.8 1015.8 0.0
30/10:00am 28.2 28.1 20.7 63 5.0 SE 22 33 12 18 1016.0 1016.0 0.0
30/09:30am 27.9 27.5 21.0 66 4.6 SE 24 35 13 19 1016.2 1016.2 0.0
30/09:00am 26.9 27.3 20.7 69 4.1 SE 19 24 10 13 1016.2 1016.2 0.0
30/08:30am 26.2 27.1 20.8 72 3.6 ESE 17 26 9 14 1016.1 1016.1 0.0
30/08:00am 26.0 26.9 20.8 73 3.4 SE 17 24 9 13 1015.9 1015.9 0.0
30/07:30am 25.2 26.5 20.9 77 2.8 SE 15 22 8 12 1015.6 1015.6 0.0
30/07:00am 24.8 26.4 20.7 78 2.7 SE 13 19 7 10 1015.1 1015.1 0.0
30/06:30am 24.7 25.9 20.6 78 2.7 SE 15 22 8 12 1014.6 1014.6 0.0
30/06:00am 24.7 26.2 20.6 78 2.7 SE 13 17 7 9 1014.3 1014.3 0.0
30/05:30am 24.7 26.0 20.2 76 2.9 SE 13 26 7 14 1014.1 1014.1 0.0
30/05:00am 24.5 25.9 20.4 78 2.7 SE 13 20 7 11 1013.8 1013.8 0.0
30/04:30am 24.4 25.8 20.3 78 2.7 SE 13 19 7 10 1013.6 1013.6 0.0
30/04:00am 24.5 25.5 20.2 77 2.8 SE 15 24 8 13 1013.2 1013.2 0.0
30/03:30am 24.4 25.6 19.9 76 2.9 SE 13 22 7 12 1013.2 1013.2 0.0
30/03:00am 24.6 25.5 20.1 76 2.9 SE 15 20 8 11 1013.2 1013.2 0.0
30/02:30am 24.8 24.3 19.2 71 3.6 ESE 20 33 11 18 1013.3 1013.3 0.0
30/02:00am 24.7 24.8 19.1 71 3.6 SE 17 26 9 14 1013.4 1013.4 0.0
30/01:30am 24.9 24.5 19.3 71 3.6 SE 20 30 11 16 1013.7 1013.7 0.0
30/01:00am 24.7 24.9 19.3 72 3.5 SE 17 30 9 16 1014.0 1014.0 0.0
30/12:30am 25.0 24.7 19.6 72 3.5 SE 20 32 11 17 1014.2 1014.2 0.0
30/12:00am 25.1 24.9 19.7 72 3.5 SE 20 33 11 18 1014.6 1014.6 0.0
 
Date/Time
EST
Temp
°C
App
Temp
°C
Dew
Point
°C
Rel
Hum
%
Delta-T
°C
Wind Press
QNH
hPa
Press
MSL
hPa
Rain since
9am
mm
Dir  Spd
km/h
Gust
km/h
Spd
kts
Gust
kts
29/11:30pm 24.9 24.9 19.7 73 3.4 SE 19 32 10 17 1014.9 1014.9 0.0
29/11:00pm 25.1 25.0 19.9 73 3.4 SE 20 28 11 15 1015.1 1015.1 0.0
29/10:30pm 25.2 25.4 20.2 74 3.3 ESE 19 28 10 15 1015.1 1015.1 0.0
29/10:00pm 25.0 25.1 20.3 75 3.1 ESE 20 30 11 16 1015.0 1015.0 0.0
29/09:30pm 24.9 25.2 20.4 76 2.9 ESE 19 28 10 15 1015.0 1015.0 0.0
29/09:00pm 24.9 25.0 20.4 76 2.9 ESE 20 33 11 18 1014.8 1014.8 0.0
29/08:30pm 24.8 25.4 20.3 76 2.9 SE 17 30 9 16 1014.5 1014.5 0.0
29/08:00pm 25.0 25.2 20.5 76 2.9 SE 20 32 11 17 1014.2 1014.2 0.0
29/07:30pm 25.0 25.2 20.5 76 2.9 ESE 20 30 11 16 1013.9 1013.9 0.0
29/07:00pm 25.0 24.3 20.3 75 3.1 ESE 24 35 13 19 1013.6 1013.6 0.0
29/06:30pm 24.9 25.3 20.6 77 2.8 SE 19 30 10 16 1013.4 1013.4 0.0
29/06:00pm 25.2 25.5 20.7 76 2.9 SE 20 35 11 19 1013.0 1013.0 0.0
29/05:30pm 25.8 25.2 20.6 73 3.4 ESE 24 32 13 17 1012.8 1012.8 0.0
29/05:00pm 26.3 25.7 20.6 71 3.7 SE 24 39 13 21 1012.5 1012.5 0.0
29/04:30pm 26.6 25.5 20.2 68 4.2 SE 26 37 14 20 1012.5 1012.5 0.0
29/04:00pm 27.3 26.0 20.6 67 4.4 ESE 28 39 15 21 1012.4 1012.4 0.0
29/03:30pm 27.7 25.9 20.3 64 4.9 ESE 30 41 16 22 1012.4 1012.4 0.0
29/03:00pm 28.5 27.7 20.8 63 5.1 ESE 26 43 14 23 1012.5 1012.5 0.0
29/02:47pm 28.6 27.3 20.6 62 5.3 ESE 28 48 15 26 1012.6 1012.6 0.0
29/02:30pm 28.4 27.0 20.4 62 5.3 ESE 28 41 15 22 1012.7 1012.7 0.0
29/02:23pm 28.2 26.9 20.7 63 5.0 ESE 28 46 15 25 1012.7 1012.7 0.0
29/02:00pm 28.8 27.1 20.5 61 5.5 ESE 30 43 16 23 1012.9 1012.9 0.0
29/01:30pm 29.3 28.0 19.9 57 6.2 ESE 26 41 14 22 1013.3 1013.3 0.0
29/01:00pm 28.5 27.1 20.5 62 5.3 ESE 28 39 15 21 1013.7 1013.7 0.0
29/12:30pm 28.8 27.2 20.0 59 5.8 ESE 28 41 15 22 1014.1 1014.1 0.0
29/12:00pm 27.1 25.6 20.2 66 4.5 SE 28 39 15 21 1014.7 1014.7 0.0
29/11:30am 28.3 27.0 20.6 63 5.1 ESE 28 43 15 23 1015.0 1015.0 0.0
29/11:00am 28.3 26.6 19.8 60 5.5 SE 28 44 15 24 1015.2 1015.2 0.0
29/10:30am 27.9 26.2 20.5 64 4.9 ESE 30 43 16 23 1015.5 1015.5 0.0
29/10:08am 27.6 26.6 21.2 68 4.3 SE 28 46 15 25 1015.6 1015.6 0.0
29/10:00am 27.3 26.0 20.6 67 4.4 SE 28 43 15 23 1015.6 1015.6 0.0
29/09:54am 26.7 25.7 20.5 69 4.1 SE 26 39 14 21 1015.6 1015.6 0.0
29/09:30am 26.6 26.2 20.9 71 3.8 SE 24 41 13 22 1015.8 1015.8 0.0
29/09:24am 28.0 28.1 21.8 69 4.2 SE 24 39 13 21 1015.8 1015.8 0.0
29/09:19am 27.5 27.0 21.5 70 4.0 SE 26 39 14 21 1015.7 1015.7 0.0
29/09:06am 26.9 26.0 21.4 72 3.7 SE 28 46 15 25 1015.5 1015.5 0.0
29/09:03am 27.1 26.7 21.6 72 3.7 SE 26 43 14 23 1015.5 1015.5 0.0
29/09:00am 27.1 27.4 22.3 75 3.2 SE 24 39 13 21 1015.5 1015.5 0.0
29/08:30am 27.5 27.7 21.3 69 4.1 ESE 22 33 12 18 1015.2 1015.2 0.0
29/08:00am 26.8 27.3 20.9 70 3.9 SE 19 28 10 15 1014.8 1014.8 0.0
29/07:30am 26.2 28.9 22.1 78 2.7 SSE 11 17 6 9 1014.3 1014.3 0.0
29/07:00am 24.5 27.6 21.4 83 2.0 S 7 11 4 6 1014.0 1014.0 0.0
29/06:35am 24.5 27.6 21.4 83 2.0 SSE 7 9 4 5 1013.7 1013.7 0.0
29/06:30am 24.4 27.4 21.3 83 2.0 SSE 7 9 4 5 1013.6 1013.6 0.0
29/06:17am 24.3 27.3 21.2 83 2.0 S 7 9 4 5 1013.4 1013.4 0.0
29/06:00am 24.1 27.3 21.2 84 1.9 S 6 7 3 4 1013.2 1013.2 0.0
29/05:30am 24.1 27.2 21.0 83 2.0 SSE 6 7 3 4 1012.7 1012.7 0.0
29/05:00am 24.5 27.2 20.6 79 2.5 SE 7 11 4 6 1012.2 1012.2 0.0
29/04:30am 24.8 27.4 20.5 77 2.8 SE 7 13 4 7 1012.1 1012.1 0.0
29/04:00am 24.5 26.7 20.4 78 2.7 SE 9 15 5 8 1011.7 1011.7 0.0
29/03:30am 24.4 26.9 20.3 78 2.7 SE 7 11 4 6 1011.6 1011.6 0.0
29/03:00am 24.6 26.8 20.3 77 2.8 SE 9 15 5 8 1011.5 1011.5 0.0
29/02:30am 24.6 26.5 20.5 78 2.7 ESE 11 17 6 9 1011.7 1011.7 0.0
29/02:00am 24.8 26.7 20.5 77 2.8 SE 11 15 6 8 1012.1 1012.1 0.0
29/01:30am 25.1 26.6 20.6 76 2.9 ESE 13 19 7 10 1012.2 1012.2 0.0
29/01:00am 25.1 26.6 20.6 76 2.9 ESE 13 19 7 10 1012.7 1012.7 0.0
29/12:30am 25.3 26.0 20.5 75 3.1 ESE 17 24 9 13 1013.1 1013.1 0.0
29/12:00am 25.5 26.5 21.0 76 3.0 ESE 17 22 9 12 1013.4 1013.4 0.0
 
Date/Time
EST
Temp
°C
App
Temp
°C
Dew
Point
°C
Rel
Hum
%
Delta-T
°C
Wind Press
QNH
hPa
Press
MSL
hPa
Rain since
9am
mm
Dir  Spd
km/h
Gust
km/h
Spd
kts
Gust
kts
28/11:30pm 25.4 26.4 21.1 77 2.8 ESE 17 26 9 14 1013.4 1013.4 0.0
28/11:00pm 25.1 26.8 21.0 78 2.7 ESE 13 19 7 10 1013.6 1013.6 0.0
28/10:30pm 25.2 26.1 20.9 77 2.8 ESE 17 20 9 11 1013.6 1013.6 0.0
28/10:00pm 25.1 27.0 19.7 72 3.5 ESE 9 19 5 10 1013.9 1013.9 0.0
28/09:30pm 25.5 26.7 19.9 71 3.6 ESE 13 22 7 12 1013.6 1013.6 0.0
28/09:00pm 25.7 25.7 19.8 70 3.8 ESE 19 28 10 15 1013.3 1013.3 0.0
28/08:30pm 25.9 26.4 20.0 70 3.8 SE 17 26 9 14 1013.1 1013.1 0.0
28/08:00pm 25.7 26.6 20.0 71 3.7 ESE 15 20 8 11 1012.9 1012.9 0.0
28/07:30pm 25.9 26.2 20.5 72 3.5 ESE 19 30 10 16 1012.6 1012.6 0.0
28/07:00pm 25.6 26.0 19.9 70 3.7 ESE 17 24 9 13 1012.2 1012.2 0.0
28/06:30pm 25.9 26.5 20.2 71 3.7 SE 17 24 9 13 1012.0 1012.0 0.0
28/06:00pm 26.2 26.8 20.3 70 3.9 ESE 17 22 9 12 1011.7 1011.7 0.0
28/05:30pm 26.9 28.1 20.7 69 4.1 SE 15 28 8 15 1011.5 1011.5 0.0
28/05:00pm 27.6 28.4 20.7 66 4.6 ESE 17 28 9 15 1011.1 1011.1 0.0
28/04:30pm 27.4 27.2 21.2 69 4.1 ESE 24 35 13 19 1010.9 1010.9 0.0
28/04:00pm 28.0 27.1 20.6 64 4.9 ESE 26 39 14 21 1010.8 1010.8 0.0
28/03:30pm 28.7 28.4 20.4 60 5.5 SE 22 33 12 18 1010.7 1010.7 0.0
28/03:00pm 29.1 27.7 20.5 59 5.7 ESE 28 37 15 20 1010.6 1010.6 0.0
28/02:30pm 29.5 28.9 20.6 58 5.9 ESE 24 37 13 20 1011.0 1011.0 0.0
28/02:00pm 29.8 29.3 21.5 61 5.6 SE 26 37 14 20 1011.0 1011.0 0.0
28/01:36pm 29.9 29.1 21.6 61 5.6 ESE 28 43 15 23 1011.2 1011.2 0.0
28/01:30pm 29.7 28.8 21.4 61 5.6 ESE 28 35 15 19 1011.2 1011.2 0.0
28/01:22pm 29.3 27.9 20.5 59 5.8 ESE 28 44 15 24 1011.5 1011.5 0.0
28/01:00pm 30.1 28.9 20.9 57 6.1 ESE 28 41 15 22 1011.4 1011.4 0.0

Other formats

Comma delimited format used in spreadsheet applications
http://www.bom.gov.au/fwo/IDQ60801/IDQ60801.95283.axf

JavaScript Object Notation format (JSON) in row-major order
http://www.bom.gov.au/fwo/IDQ60801/IDQ60801.95283.json

Data quality

Most of these data are generated automatically and are frequently updated. Quality checks on data are not normally performed. It is possible for incorrect values to appear. Refer to information at About Latest Weather Observations and please check the disclaimer before using these data.